sensor_id;sensor_type;location;lat;lon;timestamp;temperature;humidity
80256;DHT22;69564;37.974;23.708;2023-04-24T00:00:13;22.30;35.60
80256;DHT22;69564;37.974;23.708;2023-04-24T00:02:44;22.30;35.80
80256;DHT22;69564;37.974;23.708;2023-04-24T00:05:14;22.40;35.80
80256;DHT22;69564;37.974;23.708;2023-04-24T00:07:41;22.40;35.60
80256;DHT22;69564;37.974;23.708;2023-04-24T00:10:08;22.40;35.60
80256;DHT22;69564;37.974;23.708;2023-04-24T00:12:33;22.40;35.60
80256;DHT22;69564;37.974;23.708;2023-04-24T00:15:00;22.40;35.60
80256;DHT22;69564;37.974;23.708;2023-04-24T00:17:26;22.40;35.60
80256;DHT22;69564;37.974;23.708;2023-04-24T00:19:51;22.40;35.50
80256;DHT22;69564;37.974;23.708;2023-04-24T00:22:24;22.40;35.60
80256;DHT22;69564;37.974;23.708;2023-04-24T00:24:49;22.40;35.70
80256;DHT22;69564;37.974;23.708;2023-04-24T00:27:15;22.40;35.70
80256;DHT22;69564;37.974;23.708;2023-04-24T00:29:41;22.40;35.90
80256;DHT22;69564;37.974;23.708;2023-04-24T00:32:07;22.30;35.80
80256;DHT22;69564;37.974;23.708;2023-04-24T00:34:32;22.40;35.80
80256;DHT22;69564;37.974;23.708;2023-04-24T00:36:58;22.40;35.80
80256;DHT22;69564;37.974;23.708;2023-04-24T00:39:24;22.40;35.80
80256;DHT22;69564;37.974;23.708;2023-04-24T00:41:50;22.30;35.90
80256;DHT22;69564;37.974;23.708;2023-04-24T00:44:16;22.30;36.10
80256;DHT22;69564;37.974;23.708;2023-04-24T00:46:42;22.20;37.20
80256;DHT22;69564;37.974;23.708;2023-04-24T00:49:08;22.30;36.10
80256;DHT22;69564;37.974;23.708;2023-04-24T00:51:33;22.30;36.00
80256;DHT22;69564;37.974;23.708;2023-04-24T00:54:02;22.30;36.00
80256;DHT22;69564;37.974;23.708;2023-04-24T00:56:28;22.30;36.00
80256;DHT22;69564;37.974;23.708;2023-04-24T00:58:55;22.30;36.00
80256;DHT22;69564;37.974;23.708;2023-04-24T01:01:21;22.20;36.10
80256;DHT22;69564;37.974;23.708;2023-04-24T01:03:49;22.30;36.10
80256;DHT22;69564;37.974;23.708;2023-04-24T01:06:16;22.30;36.10
80256;DHT22;69564;37.974;23.708;2023-04-24T01:08:43;22.20;36.10
80256;DHT22;69564;37.974;23.708;2023-04-24T01:11:11;22.20;36.30
80256;DHT22;69564;37.974;23.708;2023-04-24T01:13:37;22.10;36.50
80256;DHT22;69564;37.974;23.708;2023-04-24T01:16:03;22.10;36.50
80256;DHT22;69564;37.974;23.708;2023-04-24T01:18:29;22.10;36.60
80256;DHT22;69564;37.974;23.708;2023-04-24T01:20:58;22.10;36.50
80256;DHT22;69564;37.974;23.708;2023-04-24T01:23:24;22.10;36.60
80256;DHT22;69564;37.974;23.708;2023-04-24T01:25:50;22.10;36.60
80256;DHT22;69564;37.974;23.708;2023-04-24T01:28:17;22.10;36.70
80256;DHT22;69564;37.974;23.708;2023-04-24T01:30:43;22.10;36.80
80256;DHT22;69564;37.974;23.708;2023-04-24T01:33:09;22.10;36.70
80256;DHT22;69564;37.974;23.708;2023-04-24T01:35:36;22.10;36.70
80256;DHT22;69564;37.974;23.708;2023-04-24T01:38:03;22.10;36.60
80256;DHT22;69564;37.974;23.708;2023-04-24T01:40:29;22.10;36.70
80256;DHT22;69564;37.974;23.708;2023-04-24T01:42:54;22.10;36.80
80256;DHT22;69564;37.974;23.708;2023-04-24T01:45:20;22.10;36.80
80256;DHT22;69564;37.974;23.708;2023-04-24T01:47:46;22.10;36.80
80256;DHT22;69564;37.974;23.708;2023-04-24T01:50:13;22.10;36.70
80256;DHT22;69564;37.974;23.708;2023-04-24T01:52:39;22.10;36.70
80256;DHT22;69564;37.974;23.708;2023-04-24T01:55:05;22.10;36.70
80256;DHT22;69564;37.974;23.708;2023-04-24T01:57:31;22.10;36.70
80256;DHT22;69564;37.974;23.708;2023-04-24T01:59:58;22.10;36.80
80256;DHT22;69564;37.974;23.708;2023-04-24T02:02:24;22.00;36.80
80256;DHT22;69564;37.974;23.708;2023-04-24T02:04:50;22.00;36.90
80256;DHT22;69564;37.974;23.708;2023-04-24T02:07:16;22.00;36.90
80256;DHT22;69564;37.974;23.708;2023-04-24T02:09:41;22.00;37.00
80256;DHT22;69564;37.974;23.708;2023-04-24T02:12:07;21.90;37.10
80256;DHT22;69564;37.974;23.708;2023-04-24T02:14:33;21.90;37.20
80256;DHT22;69564;37.974;23.708;2023-04-24T02:16:59;21.90;37.40
80256;DHT22;69564;37.974;23.708;2023-04-24T02:19:26;21.90;37.30
80256;DHT22;69564;37.974;23.708;2023-04-24T02:21:52;21.90;37.10
80256;DHT22;69564;37.974;23.708;2023-04-24T02:24:17;21.90;37.30
80256;DHT22;69564;37.974;23.708;2023-04-24T02:26:43;21.90;37.30
80256;DHT22;69564;37.974;23.708;2023-04-24T02:29:09;21.90;37.40
80256;DHT22;69564;37.974;23.708;2023-04-24T02:31:34;21.90;37.40
80256;DHT22;69564;37.974;23.708;2023-04-24T02:34:00;21.80;37.30
80256;DHT22;69564;37.974;23.708;2023-04-24T02:36:26;21.80;37.40
80256;DHT22;69564;37.974;23.708;2023-04-24T02:38:51;21.80;37.50
80256;DHT22;69564;37.974;23.708;2023-04-24T02:41:17;21.80;37.60
80256;DHT22;69564;37.974;23.708;2023-04-24T02:43:43;21.80;37.50
80256;DHT22;69564;37.974;23.708;2023-04-24T02:46:09;21.90;37.40
80256;DHT22;69564;37.974;23.708;2023-04-24T02:48:34;21.90;37.40
80256;DHT22;69564;37.974;23.708;2023-04-24T02:51:00;21.80;37.30
80256;DHT22;69564;37.974;23.708;2023-04-24T02:53:26;21.90;37.40
80256;DHT22;69564;37.974;23.708;2023-04-24T02:55:51;21.80;37.30
80256;DHT22;69564;37.974;23.708;2023-04-24T02:58:17;21.90;37.60
80256;DHT22;69564;37.974;23.708;2023-04-24T03:00:45;21.80;37.50
80256;DHT22;69564;37.974;23.708;2023-04-24T03:03:11;21.80;37.60
80256;DHT22;69564;37.974;23.708;2023-04-24T03:05:37;21.80;37.70
80256;DHT22;69564;37.974;23.708;2023-04-24T03:08:03;21.70;37.90
80256;DHT22;69564;37.974;23.708;2023-04-24T03:10:28;21.70;37.90
80256;DHT22;69564;37.974;23.708;2023-04-24T03:12:54;21.80;37.90
80256;DHT22;69564;37.974;23.708;2023-04-24T03:15:20;21.80;37.80
80256;DHT22;69564;37.974;23.708;2023-04-24T03:17:46;21.80;37.70
80256;DHT22;69564;37.974;23.708;2023-04-24T03:20:12;21.80;37.70
80256;DHT22;69564;37.974;23.708;2023-04-24T03:22:37;21.80;37.70
80256;DHT22;69564;37.974;23.708;2023-04-24T03:25:03;21.80;37.70
80256;DHT22;69564;37.974;23.708;2023-04-24T03:27:29;21.80;37.80
80256;DHT22;69564;37.974;23.708;2023-04-24T03:29:56;21.80;37.80
80256;DHT22;69564;37.974;23.708;2023-04-24T03:32:22;21.80;37.80
80256;DHT22;69564;37.974;23.708;2023-04-24T03:34:50;21.80;37.80
80256;DHT22;69564;37.974;23.708;2023-04-24T03:37:16;21.80;38.20
80256;DHT22;69564;37.974;23.708;2023-04-24T03:39:43;21.90;38.70
80256;DHT22;69564;37.974;23.708;2023-04-24T03:42:08;21.90;38.70
80256;DHT22;69564;37.974;23.708;2023-04-24T03:44:35;21.90;39.80
80256;DHT22;69564;37.974;23.708;2023-04-24T03:47:01;22.00;38.70
80256;DHT22;69564;37.974;23.708;2023-04-24T03:49:27;22.00;38.60
80256;DHT22;69564;37.974;23.708;2023-04-24T03:51:53;22.00;38.30
80256;DHT22;69564;37.974;23.708;2023-04-24T03:54:19;22.00;38.30
80256;DHT22;69564;37.974;23.708;2023-04-24T03:56:45;22.10;38.20
80256;DHT22;69564;37.974;23.708;2023-04-24T03:59:11;22.10;38.20
80256;DHT22;69564;37.974;23.708;2023-04-24T04:01:37;22.10;38.10
80256;DHT22;69564;37.974;23.708;2023-04-24T04:04:03;22.10;38.00
80256;DHT22;69564;37.974;23.708;2023-04-24T04:06:29;22.10;38.00
80256;DHT22;69564;37.974;23.708;2023-04-24T04:08:58;22.10;38.00
80256;DHT22;69564;37.974;23.708;2023-04-24T04:11:25;22.10;38.10
80256;DHT22;69564;37.974;23.708;2023-04-24T04:13:50;22.10;38.10
80256;DHT22;69564;37.974;23.708;2023-04-24T04:16:16;22.10;38.20
80256;DHT22;69564;37.974;23.708;2023-04-24T04:18:43;22.10;39.00
80256;DHT22;69564;37.974;23.708;2023-04-24T04:21:09;22.10;39.50
80256;DHT22;69564;37.974;23.708;2023-04-24T04:23:35;22.10;39.70
80256;DHT22;69564;37.974;23.708;2023-04-24T04:26:01;22.10;40.00
80256;DHT22;69564;37.974;23.708;2023-04-24T04:28:29;22.10;39.90
80256;DHT22;69564;37.974;23.708;2023-04-24T04:30:56;22.10;40.00
80256;DHT22;69564;37.974;23.708;2023-04-24T04:33:23;22.10;39.80
80256;DHT22;69564;37.974;23.708;2023-04-24T04:35:49;22.10;39.70
80256;DHT22;69564;37.974;23.708;2023-04-24T04:38:18;22.20;39.60
80256;DHT22;69564;37.974;23.708;2023-04-24T04:40:45;22.20;39.30
80256;DHT22;69564;37.974;23.708;2023-04-24T04:43:11;22.20;39.20
80256;DHT22;69564;37.974;23.708;2023-04-24T04:45:37;22.30;39.00
80256;DHT22;69564;37.974;23.708;2023-04-24T04:48:04;22.20;38.80
80256;DHT22;69564;37.974;23.708;2023-04-24T04:50:33;22.30;38.90
80256;DHT22;69564;37.974;23.708;2023-04-24T04:52:58;22.30;38.70
80256;DHT22;69564;37.974;23.708;2023-04-24T04:55:24;22.40;38.60
80256;DHT22;69564;37.974;23.708;2023-04-24T04:57:51;22.40;38.50
80256;DHT22;69564;37.974;23.708;2023-04-24T05:00:17;22.40;38.30
80256;DHT22;69564;37.974;23.708;2023-04-24T05:02:43;22.40;38.40
80256;DHT22;69564;37.974;23.708;2023-04-24T05:05:09;22.50;38.30
80256;DHT22;69564;37.974;23.708;2023-04-24T05:07:35;22.50;38.10
80256;DHT22;69564;37.974;23.708;2023-04-24T05:10:01;22.50;38.00
80256;DHT22;69564;37.974;23.708;2023-04-24T05:12:27;22.60;37.80
80256;DHT22;69564;37.974;23.708;2023-04-24T05:14:53;22.70;37.80
80256;DHT22;69564;37.974;23.708;2023-04-24T05:17:18;22.70;37.70
80256;DHT22;69564;37.974;23.708;2023-04-24T05:19:44;22.80;37.60
80256;DHT22;69564;37.974;23.708;2023-04-24T05:22:10;22.90;37.10
80256;DHT22;69564;37.974;23.708;2023-04-24T05:24:37;23.00;36.90
80256;DHT22;69564;37.974;23.708;2023-04-24T05:27:03;23.10;36.80
80256;DHT22;69564;37.974;23.708;2023-04-24T05:29:32;23.20;36.70
80256;DHT22;69564;37.974;23.708;2023-04-24T05:31:59;23.20;36.60
80256;DHT22;69564;37.974;23.708;2023-04-24T05:34:25;23.30;36.40
80256;DHT22;69564;37.974;23.708;2023-04-24T05:36:51;23.30;36.20
80256;DHT22;69564;37.974;23.708;2023-04-24T05:39:17;23.40;36.10
80256;DHT22;69564;37.974;23.708;2023-04-24T05:41:43;23.40;36.00
80256;DHT22;69564;37.974;23.708;2023-04-24T05:44:09;23.50;36.00
80256;DHT22;69564;37.974;23.708;2023-04-24T05:46:35;23.60;36.00
80256;DHT22;69564;37.974;23.708;2023-04-24T05:49:01;23.60;35.90
80256;DHT22;69564;37.974;23.708;2023-04-24T05:51:27;23.70;35.80
80256;DHT22;69564;37.974;23.708;2023-04-24T05:53:53;23.70;35.60
80256;DHT22;69564;37.974;23.708;2023-04-24T05:56:19;23.70;35.60
80256;DHT22;69564;37.974;23.708;2023-04-24T05:58:46;23.70;35.40
80256;DHT22;69564;37.974;23.708;2023-04-24T06:01:12;23.80;35.40
80256;DHT22;69564;37.974;23.708;2023-04-24T06:03:38;23.80;35.30
80256;DHT22;69564;37.974;23.708;2023-04-24T06:06:06;23.90;35.10
80256;DHT22;69564;37.974;23.708;2023-04-24T06:08:31;23.90;35.00
80256;DHT22;69564;37.974;23.708;2023-04-24T06:10:58;24.00;34.90
80256;DHT22;69564;37.974;23.708;2023-04-24T06:13:24;24.10;34.90
80256;DHT22;69564;37.974;23.708;2023-04-24T06:15:50;24.10;34.70
80256;DHT22;69564;37.974;23.708;2023-04-24T06:18:16;24.20;34.70
80256;DHT22;69564;37.974;23.708;2023-04-24T06:20:41;24.20;34.70
80256;DHT22;69564;37.974;23.708;2023-04-24T06:23:07;24.20;34.60
80256;DHT22;69564;37.974;23.708;2023-04-24T06:25:33;24.30;34.50
80256;DHT22;69564;37.974;23.708;2023-04-24T06:27:59;24.40;34.50
80256;DHT22;69564;37.974;23.708;2023-04-24T06:30:25;24.40;34.40
80256;DHT22;69564;37.974;23.708;2023-04-24T06:32:51;24.40;34.30
80256;DHT22;69564;37.974;23.708;2023-04-24T06:35:16;24.50;34.20
80256;DHT22;69564;37.974;23.708;2023-04-24T06:37:42;24.50;35.30
80256;DHT22;69564;37.974;23.708;2023-04-24T06:40:09;24.50;34.10
80256;DHT22;69564;37.974;23.708;2023-04-24T06:42:35;24.50;35.10
80256;DHT22;69564;37.974;23.708;2023-04-24T06:45:02;24.60;34.00
80256;DHT22;69564;37.974;23.708;2023-04-24T06:47:27;24.70;33.60
80256;DHT22;69564;37.974;23.708;2023-04-24T06:49:53;24.70;33.70
80256;DHT22;69564;37.974;23.708;2023-04-24T06:52:20;24.70;33.70
80256;DHT22;69564;37.974;23.708;2023-04-24T06:54:46;24.70;33.80
80256;DHT22;69564;37.974;23.708;2023-04-24T06:57:12;24.80;33.70
80256;DHT22;69564;37.974;23.708;2023-04-24T06:59:38;24.80;33.60
80256;DHT22;69564;37.974;23.708;2023-04-24T07:02:04;24.80;33.60
80256;DHT22;69564;37.974;23.708;2023-04-24T07:04:30;24.90;33.50
80256;DHT22;69564;37.974;23.708;2023-04-24T07:06:56;24.90;33.50
80256;DHT22;69564;37.974;23.708;2023-04-24T07:09:24;24.90;33.50
80256;DHT22;69564;37.974;23.708;2023-04-24T07:11:51;24.90;33.30
80256;DHT22;69564;37.974;23.708;2023-04-24T07:14:17;24.90;33.30
80256;DHT22;69564;37.974;23.708;2023-04-24T07:16:43;25.00;33.30
80256;DHT22;69564;37.974;23.708;2023-04-24T07:19:09;25.00;33.30
80256;DHT22;69564;37.974;23.708;2023-04-24T07:21:35;25.10;33.40
80256;DHT22;69564;37.974;23.708;2023-04-24T07:24:00;25.10;33.40
80256;DHT22;69564;37.974;23.708;2023-04-24T07:26:28;25.10;33.30
80256;DHT22;69564;37.974;23.708;2023-04-24T07:28:54;25.10;33.50
80256;DHT22;69564;37.974;23.708;2023-04-24T07:31:20;25.10;33.30
80256;DHT22;69564;37.974;23.708;2023-04-24T07:33:46;25.20;33.20
80256;DHT22;69564;37.974;23.708;2023-04-24T07:36:12;25.20;33.10
80256;DHT22;69564;37.974;23.708;2023-04-24T07:38:45;25.20;33.10
80256;DHT22;69564;37.974;23.708;2023-04-24T07:41:11;25.30;33.10
80256;DHT22;69564;37.974;23.708;2023-04-24T07:43:37;25.30;33.00
80256;DHT22;69564;37.974;23.708;2023-04-24T07:46:02;25.30;33.00
80256;DHT22;69564;37.974;23.708;2023-04-24T07:48:28;25.30;32.90
80256;DHT22;69564;37.974;23.708;2023-04-24T07:50:54;25.30;32.80
80256;DHT22;69564;37.974;23.708;2023-04-24T07:53:20;25.30;32.90
80256;DHT22;69564;37.974;23.708;2023-04-24T07:55:46;25.30;33.00
80256;DHT22;69564;37.974;23.708;2023-04-24T07:58:12;25.30;33.20
80256;DHT22;69564;37.974;23.708;2023-04-24T08:00:37;25.30;33.30
80256;DHT22;69564;37.974;23.708;2023-04-24T08:03:03;25.30;33.30
80256;DHT22;69564;37.974;23.708;2023-04-24T08:05:29;25.30;33.30
80256;DHT22;69564;37.974;23.708;2023-04-24T08:07:55;25.30;33.50
80256;DHT22;69564;37.974;23.708;2023-04-24T08:10:24;25.30;33.50
80256;DHT22;69564;37.974;23.708;2023-04-24T08:12:50;25.30;33.50
80256;DHT22;69564;37.974;23.708;2023-04-24T08:15:16;25.30;33.60
80256;DHT22;69564;37.974;23.708;2023-04-24T08:17:41;25.30;33.60
80256;DHT22;69564;37.974;23.708;2023-04-24T08:20:09;25.30;33.70
80256;DHT22;69564;37.974;23.708;2023-04-24T08:22:42;25.30;33.80
80256;DHT22;69564;37.974;23.708;2023-04-24T08:25:09;25.30;33.60
80256;DHT22;69564;37.974;23.708;2023-04-24T08:27:36;25.40;33.70
80256;DHT22;69564;37.974;23.708;2023-04-24T08:30:05;25.40;33.60
80256;DHT22;69564;37.974;23.708;2023-04-24T08:32:32;25.30;33.90
80256;DHT22;69564;37.974;23.708;2023-04-24T08:34:58;25.30;34.10
80256;DHT22;69564;37.974;23.708;2023-04-24T08:37:26;25.30;34.40
80256;DHT22;69564;37.974;23.708;2023-04-24T08:39:52;25.30;34.60
80256;DHT22;69564;37.974;23.708;2023-04-24T08:42:19;25.30;34.70
80256;DHT22;69564;37.974;23.708;2023-04-24T08:44:46;25.40;34.60
80256;DHT22;69564;37.974;23.708;2023-04-24T08:47:12;25.40;34.70
80256;DHT22;69564;37.974;23.708;2023-04-24T08:49:38;25.40;34.70
80256;DHT22;69564;37.974;23.708;2023-04-24T08:52:08;25.50;34.70
80256;DHT22;69564;37.974;23.708;2023-04-24T08:54:36;25.50;34.60
80256;DHT22;69564;37.974;23.708;2023-04-24T08:57:06;25.60;34.40
80256;DHT22;69564;37.974;23.708;2023-04-24T08:59:33;25.60;34.30
80256;DHT22;69564;37.974;23.708;2023-04-24T09:02:02;25.60;34.30
80256;DHT22;69564;37.974;23.708;2023-04-24T09:04:29;25.60;34.30
80256;DHT22;69564;37.974;23.708;2023-04-24T09:06:56;25.60;34.20
80256;DHT22;69564;37.974;23.708;2023-04-24T09:09:23;25.60;34.10
80256;DHT22;69564;37.974;23.708;2023-04-24T09:11:50;25.60;34.10
80256;DHT22;69564;37.974;23.708;2023-04-24T09:14:19;25.60;33.90
80256;DHT22;69564;37.974;23.708;2023-04-24T09:16:45;25.50;34.00
80256;DHT22;69564;37.974;23.708;2023-04-24T09:19:11;25.50;34.00
80256;DHT22;69564;37.974;23.708;2023-04-24T09:21:37;25.50;34.00
80256;DHT22;69564;37.974;23.708;2023-04-24T09:24:07;25.50;34.00
80256;DHT22;69564;37.974;23.708;2023-04-24T09:26:36;25.50;33.90
80256;DHT22;69564;37.974;23.708;2023-04-24T09:29:03;25.50;33.80
80256;DHT22;69564;37.974;23.708;2023-04-24T09:31:29;25.50;33.90
80256;DHT22;69564;37.974;23.708;2023-04-24T09:34:02;25.50;33.80
80256;DHT22;69564;37.974;23.708;2023-04-24T09:36:39;25.60;33.80
80256;DHT22;69564;37.974;23.708;2023-04-24T09:39:07;25.60;33.90
80256;DHT22;69564;37.974;23.708;2023-04-24T09:41:49;25.70;34.00
80256;DHT22;69564;37.974;23.708;2023-04-24T09:44:17;25.70;34.10
80256;DHT22;69564;37.974;23.708;2023-04-24T09:46:48;25.70;34.10
80256;DHT22;69564;37.974;23.708;2023-04-24T09:49:16;25.70;34.10
80256;DHT22;69564;37.974;23.708;2023-04-24T09:51:42;25.70;34.10
80256;DHT22;69564;37.974;23.708;2023-04-24T09:54:19;25.70;34.10
80256;DHT22;69564;37.974;23.708;2023-04-24T09:56:48;25.70;34.30
80256;DHT22;69564;37.974;23.708;2023-04-24T09:59:16;25.70;34.30
80256;DHT22;69564;37.974;23.708;2023-04-24T10:01:42;25.70;34.30
80256;DHT22;69564;37.974;23.708;2023-04-24T10:04:24;25.70;34.20
80256;DHT22;69564;37.974;23.708;2023-04-24T10:06:51;25.80;34.40
80256;DHT22;69564;37.974;23.708;2023-04-24T10:09:19;25.80;34.30
80256;DHT22;69564;37.974;23.708;2023-04-24T10:11:46;25.80;34.20
80256;DHT22;69564;37.974;23.708;2023-04-24T10:14:17;25.70;34.30
80256;DHT22;69564;37.974;23.708;2023-04-24T10:16:44;25.70;34.50
80256;DHT22;69564;37.974;23.708;2023-04-24T10:19:12;25.60;34.60
80256;DHT22;69564;37.974;23.708;2023-04-24T10:21:40;25.60;34.50
80256;DHT22;69564;37.974;23.708;2023-04-24T10:24:12;25.70;34.60
80256;DHT22;69564;37.974;23.708;2023-04-24T10:26:39;25.70;34.60
80256;DHT22;69564;37.974;23.708;2023-04-24T10:29:06;25.60;34.70
80256;DHT22;69564;37.974;23.708;2023-04-24T10:31:36;25.60;34.90
80256;DHT22;69564;37.974;23.708;2023-04-24T10:34:04;25.60;35.00
80256;DHT22;69564;37.974;23.708;2023-04-24T10:36:31;25.60;35.00
80256;DHT22;69564;37.974;23.708;2023-04-24T10:39:00;25.60;35.10
80256;DHT22;69564;37.974;23.708;2023-04-24T10:41:26;25.50;35.10
80256;DHT22;69564;37.974;23.708;2023-04-24T10:44:11;25.50;35.20
80256;DHT22;69564;37.974;23.708;2023-04-24T10:46:38;25.50;35.30
80256;DHT22;69564;37.974;23.708;2023-04-24T10:49:07;25.50;35.30
80256;DHT22;69564;37.974;23.708;2023-04-24T10:51:51;25.50;35.20
80256;DHT22;69564;37.974;23.708;2023-04-24T10:54:22;25.50;35.30
80256;DHT22;69564;37.974;23.708;2023-04-24T10:56:47;25.50;35.10
80256;DHT22;69564;37.974;23.708;2023-04-24T10:59:24;25.50;35.30
80256;DHT22;69564;37.974;23.708;2023-04-24T11:01:54;25.50;35.40
80256;DHT22;69564;37.974;23.708;2023-04-24T11:04:31;25.40;35.30
80256;DHT22;69564;37.974;23.708;2023-04-24T11:06:58;25.50;35.50
80256;DHT22;69564;37.974;23.708;2023-04-24T11:09:27;25.50;35.40
80256;DHT22;69564;37.974;23.708;2023-04-24T11:12:06;25.50;35.40
80256;DHT22;69564;37.974;23.708;2023-04-24T11:14:59;25.40;35.40
80256;DHT22;69564;37.974;23.708;2023-04-24T11:17:38;25.40;35.40
80256;DHT22;69564;37.974;23.708;2023-04-24T11:20:10;25.50;35.40
80256;DHT22;69564;37.974;23.708;2023-04-24T11:22:38;25.40;35.30
80256;DHT22;69564;37.974;23.708;2023-04-24T11:25:08;25.50;35.30
80256;DHT22;69564;37.974;23.708;2023-04-24T11:27:43;25.40;35.20
80256;DHT22;69564;37.974;23.708;2023-04-24T11:30:10;25.50;35.40
80256;DHT22;69564;37.974;23.708;2023-04-24T11:32:40;25.40;35.20
80256;DHT22;69564;37.974;23.708;2023-04-24T11:37:36;25.40;34.90
80256;DHT22;69564;37.974;23.708;2023-04-24T11:40:04;25.50;34.90
80256;DHT22;69564;37.974;23.708;2023-04-24T11:42:42;25.50;35.00
80256;DHT22;69564;37.974;23.708;2023-04-24T11:45:10;25.40;35.00
80256;DHT22;69564;37.974;23.708;2023-04-24T11:47:36;25.40;35.00
80256;DHT22;69564;37.974;23.708;2023-04-24T11:50:04;25.40;35.00
80256;DHT22;69564;37.974;23.708;2023-04-24T11:52:30;25.40;35.00
80256;DHT22;69564;37.974;23.708;2023-04-24T11:54:56;25.40;34.90
80256;DHT22;69564;37.974;23.708;2023-04-24T11:57:25;25.50;35.10
80256;DHT22;69564;37.974;23.708;2023-04-24T11:59:53;25.40;35.10
80256;DHT22;69564;37.974;23.708;2023-04-24T12:02:26;25.40;35.30
80256;DHT22;69564;37.974;23.708;2023-04-24T12:04:53;25.40;35.30
80256;DHT22;69564;37.974;23.708;2023-04-24T12:07:19;25.40;35.30
80256;DHT22;69564;37.974;23.708;2023-04-24T12:09:58;25.40;35.50
80256;DHT22;69564;37.974;23.708;2023-04-24T12:12:26;25.40;35.50
80256;DHT22;69564;37.974;23.708;2023-04-24T12:14:54;25.40;35.60
80256;DHT22;69564;37.974;23.708;2023-04-24T12:17:28;25.40;35.60
80256;DHT22;69564;37.974;23.708;2023-04-24T12:19:58;25.40;35.60
80256;DHT22;69564;37.974;23.708;2023-04-24T12:22:28;25.40;35.70
80256;DHT22;69564;37.974;23.708;2023-04-24T12:25:01;25.50;35.70
80256;DHT22;69564;37.974;23.708;2023-04-24T12:27:32;25.40;35.70
80256;DHT22;69564;37.974;23.708;2023-04-24T12:29:59;25.40;35.70
80256;DHT22;69564;37.974;23.708;2023-04-24T12:32:26;25.40;35.70
80256;DHT22;69564;37.974;23.708;2023-04-24T12:34:55;25.40;35.50
80256;DHT22;69564;37.974;23.708;2023-04-24T12:37:24;25.40;35.50
80256;DHT22;69564;37.974;23.708;2023-04-24T12:40:07;25.30;35.40
80256;DHT22;69564;37.974;23.708;2023-04-24T12:42:34;25.30;35.40
80256;DHT22;69564;37.974;23.708;2023-04-24T12:45:05;25.30;35.30
80256;DHT22;69564;37.974;23.708;2023-04-24T12:47:34;25.30;35.30
80256;DHT22;69564;37.974;23.708;2023-04-24T12:50:01;25.30;35.20
80256;DHT22;69564;37.974;23.708;2023-04-24T12:52:29;25.30;35.00
80256;DHT22;69564;37.974;23.708;2023-04-24T12:54:56;25.30;35.20
80256;DHT22;69564;37.974;23.708;2023-04-24T12:57:24;25.30;35.30
80256;DHT22;69564;37.974;23.708;2023-04-24T12:59:52;25.30;35.20
80256;DHT22;69564;37.974;23.708;2023-04-24T13:02:20;25.30;35.10
80256;DHT22;69564;37.974;23.708;2023-04-24T13:04:47;25.30;34.90
80256;DHT22;69564;37.974;23.708;2023-04-24T13:07:14;25.30;34.80
80256;DHT22;69564;37.974;23.708;2023-04-24T13:09:40;25.30;34.70
80256;DHT22;69564;37.974;23.708;2023-04-24T13:12:07;25.30;34.60
80256;DHT22;69564;37.974;23.708;2023-04-24T13:14:33;25.30;34.20
80256;DHT22;69564;37.974;23.708;2023-04-24T13:16:59;25.30;34.10
80256;DHT22;69564;37.974;23.708;2023-04-24T13:19:25;25.20;33.90
80256;DHT22;69564;37.974;23.708;2023-04-24T13:21:52;25.20;33.90
80256;DHT22;69564;37.974;23.708;2023-04-24T13:24:18;25.10;33.90
80256;DHT22;69564;37.974;23.708;2023-04-24T13:26:44;25.20;34.00
80256;DHT22;69564;37.974;23.708;2023-04-24T13:29:11;25.20;34.10
80256;DHT22;69564;37.974;23.708;2023-04-24T13:31:37;25.20;34.20
80256;DHT22;69564;37.974;23.708;2023-04-24T13:34:03;25.20;34.20
80256;DHT22;69564;37.974;23.708;2023-04-24T13:36:29;25.20;34.00
80256;DHT22;69564;37.974;23.708;2023-04-24T13:38:55;25.20;35.10
80256;DHT22;69564;37.974;23.708;2023-04-24T13:41:21;25.20;33.90
80256;DHT22;69564;37.974;23.708;2023-04-24T13:43:47;25.20;34.00
80256;DHT22;69564;37.974;23.708;2023-04-24T13:46:13;25.20;34.10
80256;DHT22;69564;37.974;23.708;2023-04-24T13:48:38;25.10;34.30
80256;DHT22;69564;37.974;23.708;2023-04-24T13:51:04;25.10;34.50
80256;DHT22;69564;37.974;23.708;2023-04-24T13:53:30;25.10;34.40
80256;DHT22;69564;37.974;23.708;2023-04-24T13:55:56;25.10;34.70
80256;DHT22;69564;37.974;23.708;2023-04-24T13:58:22;25.00;34.70
80256;DHT22;69564;37.974;23.708;2023-04-24T14:00:47;25.00;35.10
80256;DHT22;69564;37.974;23.708;2023-04-24T14:03:13;24.90;35.20
80256;DHT22;69564;37.974;23.708;2023-04-24T14:05:40;24.90;35.40
80256;DHT22;69564;37.974;23.708;2023-04-24T14:08:05;24.90;35.50
80256;DHT22;69564;37.974;23.708;2023-04-24T14:10:31;24.90;35.60
80256;DHT22;69564;37.974;23.708;2023-04-24T14:12:57;24.90;35.70
80256;DHT22;69564;37.974;23.708;2023-04-24T14:15:23;24.90;35.60
80256;DHT22;69564;37.974;23.708;2023-04-24T14:17:49;24.90;35.60
80256;DHT22;69564;37.974;23.708;2023-04-24T14:20:15;24.90;35.50
80256;DHT22;69564;37.974;23.708;2023-04-24T14:22:41;24.90;35.70
80256;DHT22;69564;37.974;23.708;2023-04-24T14:25:07;24.80;35.80
80256;DHT22;69564;37.974;23.708;2023-04-24T14:27:33;24.90;35.90
80256;DHT22;69564;37.974;23.708;2023-04-24T14:30:00;24.90;35.70
80256;DHT22;69564;37.974;23.708;2023-04-24T14:32:26;24.80;35.70
80256;DHT22;69564;37.974;23.708;2023-04-24T14:34:52;24.90;35.60
80256;DHT22;69564;37.974;23.708;2023-04-24T14:37:17;24.90;35.20
80256;DHT22;69564;37.974;23.708;2023-04-24T14:39:43;24.80;35.20
80256;DHT22;69564;37.974;23.708;2023-04-24T14:42:09;24.80;35.10
80256;DHT22;69564;37.974;23.708;2023-04-24T14:44:35;24.80;35.10
80256;DHT22;69564;37.974;23.708;2023-04-24T14:47:00;24.80;35.10
80256;DHT22;69564;37.974;23.708;2023-04-24T14:49:26;24.80;35.20
80256;DHT22;69564;37.974;23.708;2023-04-24T14:51:52;24.70;35.30
80256;DHT22;69564;37.974;23.708;2023-04-24T14:54:18;24.70;35.40
80256;DHT22;69564;37.974;23.708;2023-04-24T14:56:43;24.70;35.80
80256;DHT22;69564;37.974;23.708;2023-04-24T14:59:10;24.70;36.00
80256;DHT22;69564;37.974;23.708;2023-04-24T15:01:36;24.70;36.30
80256;DHT22;69564;37.974;23.708;2023-04-24T15:04:01;24.60;36.50
80256;DHT22;69564;37.974;23.708;2023-04-24T15:06:27;24.70;36.30
80256;DHT22;69564;37.974;23.708;2023-04-24T15:08:53;24.70;35.80
80256;DHT22;69564;37.974;23.708;2023-04-24T15:11:19;24.70;35.80
80256;DHT22;69564;37.974;23.708;2023-04-24T15:13:45;24.70;35.70
80256;DHT22;69564;37.974;23.708;2023-04-24T15:16:11;24.70;35.30